<?xml version="1.0" encoding="UTF-8" standalone="no" ?>
<gpx xmlns="http://www.topografix.com/GPX/1/1" xmlns:xsi="http://www.w3.org/2001/XMLSchema-instance" xsi:schemaLocation="http://www.topografix.com/GPX/1/1 http://www.topografix.com/GPX/1/1/gpx.xsd" version="1.1" creator="VisuGPX - https://www.visugpx.com">
  <metadata>
    <name>GR 52 traversée du Mercantour</name>
  </metadata>
  <trk>
    <name><![CDATA[GR 52 traversée du Mercantour_1]]></name>
    <extensions>
      <line xmlns="http://www.topografix.com/GPX/gpx_style/0/2">
        <color>0000FF</color>
        <width>4</width>
      </line>
    </extensions>
    <trkseg>
      <trkpt lat="44.06668" lon="7.20106">
        <ele>1281.2</ele>
        <time>2021-04-17T16:48:43.000Z</time>
      </trkpt>
      <trkpt lat="44.06881" lon="7.20153">
        <ele>1311.9</ele>
        <time>2021-04-17T16:56:55.086Z</time>
      </trkpt>
      <trkpt lat="44.0849" lon="7.19831">
        <ele>1683.2</ele>
        <time>2021-04-17T17:58:44.191Z</time>
      </trkpt>
      <trkpt lat="44.09692" lon="7.18647">
        <ele>1984.4</ele>
        <time>2021-04-17T18:54:43.864Z</time>
      </trkpt>
      <trkpt lat="44.10515" lon="7.19046">
        <ele>2241.3</ele>
        <time>2021-04-17T19:27:52.308Z</time>
      </trkpt>
      <trkpt lat="44.11748" lon="7.20003">
        <ele>2439.3</ele>
        <time>2021-04-17T20:21:33.084Z</time>
      </trkpt>
      <trkpt lat="44.12299" lon="7.20642">
        <ele>2198.7</ele>
        <time>2021-04-17T20:23:31.975Z</time>
      </trkpt>
      <trkpt lat="44.13947" lon="7.20912">
        <ele>1904.9</ele>
        <time>2021-04-17T20:28:07.142Z</time>
      </trkpt>
      <trkpt lat="44.13756" lon="7.23462">
        <ele>2022</ele>
        <time>2021-04-17T21:02:57.212Z</time>
      </trkpt>
      <trkpt lat="44.12872" lon="7.25097">
        <ele>1819.2</ele>
        <time>2021-04-17T21:07:00.843Z</time>
      </trkpt>
      <trkpt lat="44.11871" lon="7.27663">
        <ele>1548.8</ele>
        <time>2021-04-17T21:12:48.483Z</time>
      </trkpt>
      <trkpt lat="44.11655" lon="7.2944">
        <ele>1680.8</ele>
        <time>2021-04-17T21:46:38.891Z</time>
      </trkpt>
      <trkpt lat="44.10891" lon="7.31397">
        <ele>1679.9</ele>
        <time>2021-04-17T22:02:16.927Z</time>
      </trkpt>
      <trkpt lat="44.11803" lon="7.33324">
        <ele>2005.8</ele>
        <time>2021-04-17T23:05:17.949Z</time>
      </trkpt>
      <trkpt lat="44.11295" lon="7.34963">
        <ele>2291.6</ele>
        <time>2021-04-17T23:54:02.425Z</time>
      </trkpt>
      <trkpt lat="44.11178" lon="7.35388">
        <ele>2408</ele>
        <time>2021-04-18T00:06:28.108Z</time>
      </trkpt>
      <trkpt lat="44.10558" lon="7.35525">
        <ele>2251.8</ele>
        <time>2021-04-18T00:08:12.207Z</time>
      </trkpt>
      <trkpt lat="44.09736" lon="7.35778">
        <ele>1959.3</ele>
        <time>2021-04-18T00:10:31.807Z</time>
      </trkpt>
      <trkpt lat="44.1005" lon="7.36379">
        <ele>2012.9</ele>
        <time>2021-04-18T00:24:16.299Z</time>
      </trkpt>
      <trkpt lat="44.1025" lon="7.37928">
        <ele>2375</ele>
        <time>2021-04-18T01:07:15.116Z</time>
      </trkpt>
      <trkpt lat="44.10031" lon="7.38752">
        <ele>2449.7</ele>
        <time>2021-04-18T01:26:57.707Z</time>
      </trkpt>
      <trkpt lat="44.09951" lon="7.39641">
        <ele>2180.2</ele>
        <time>2021-04-18T01:28:44.402Z</time>
      </trkpt>
      <trkpt lat="44.10204" lon="7.40804">
        <ele>2337.3</ele>
        <time>2021-04-18T02:01:55.582Z</time>
      </trkpt>
      <trkpt lat="44.09674" lon="7.42769">
        <ele>2686.8</ele>
        <time>2021-04-18T02:59:15.065Z</time>
      </trkpt>
      <trkpt lat="44.08157" lon="7.43911">
        <ele>2519.5</ele>
        <time>2021-04-18T04:04:50.096Z</time>
      </trkpt>
      <trkpt lat="44.07097" lon="7.4404">
        <ele>2314.1</ele>
        <time>2021-04-18T04:07:46.544Z</time>
      </trkpt>
      <trkpt lat="44.05777" lon="7.44434">
        <ele>2163.4</ele>
        <time>2021-04-18T04:11:30.415Z</time>
      </trkpt>
      <trkpt lat="44.05176" lon="7.44464">
        <ele>2270.4</ele>
        <time>2021-04-18T04:34:22.636Z</time>
      </trkpt>
      <trkpt lat="44.0495" lon="7.43271">
        <ele>2382.4</ele>
        <time>2021-04-18T05:04:56.993Z</time>
      </trkpt>
      <trkpt lat="44.03565" lon="7.42671">
        <ele>2066.8</ele>
        <time>2021-04-18T05:08:57.542Z</time>
      </trkpt>
      <trkpt lat="44.01665" lon="7.42233">
        <ele>1834.6</ele>
        <time>2021-04-18T05:14:16.913Z</time>
      </trkpt>
      <trkpt lat="43.99788" lon="7.4255">
        <ele>2051.3</ele>
        <time>2021-04-18T06:10:48.426Z</time>
      </trkpt>
      <trkpt lat="43.98723" lon="7.40726">
        <ele>1723.9</ele>
        <time>2021-04-18T06:15:28.680Z</time>
      </trkpt>
      <trkpt lat="43.98899" lon="7.42774">
        <ele>1764.7</ele>
        <time>2021-04-18T06:35:02.049Z</time>
      </trkpt>
      <trkpt lat="43.98275" lon="7.44155">
        <ele>1764.4</ele>
        <time>2021-04-18T06:46:33.446Z</time>
      </trkpt>
      <trkpt lat="43.95708" lon="7.45147">
        <ele>1800.7</ele>
        <time>2021-04-18T07:16:34.381Z</time>
      </trkpt>
      <trkpt lat="43.9353" lon="7.45095">
        <ele>1766.3</ele>
        <time>2021-04-18T07:25:32.995Z</time>
      </trkpt>
      <trkpt lat="43.90875" lon="7.43868">
        <ele>986.2</ele>
        <time>2021-04-18T07:33:17.019Z</time>
      </trkpt>
      <trkpt lat="43.89681" lon="7.44473">
        <ele>724.4</ele>
        <time>2021-04-18T07:36:47.800Z</time>
      </trkpt>
      <trkpt lat="43.89032" lon="7.44615">
        <ele>565.2</ele>
        <time>2021-04-18T07:38:36.752Z</time>
      </trkpt>
      <trkpt lat="43.88076" lon="7.44632">
        <ele>391.5</ele>
        <time>2021-04-18T07:41:15.296Z</time>
      </trkpt>
      <trkpt lat="43.87451" lon="7.46529">
        <ele>479.3</ele>
        <time>2021-04-18T08:08:41.025Z</time>
      </trkpt>
      <trkpt lat="43.86074" lon="7.4767">
        <ele>789.2</ele>
        <time>2021-04-18T09:09:40.954Z</time>
      </trkpt>
      <trkpt lat="43.84932" lon="7.48812">
        <ele>1039.4</ele>
        <time>2021-04-18T10:03:13.543Z</time>
      </trkpt>
      <trkpt lat="43.83279" lon="7.50309">
        <ele>978.9</ele>
        <time>2021-04-18T10:10:06.143Z</time>
      </trkpt>
      <trkpt lat="43.81951" lon="7.50782">
        <ele>885.8</ele>
        <time>2021-04-18T10:13:53.516Z</time>
      </trkpt>
      <trkpt lat="43.81137" lon="7.51412">
        <ele>906.6</ele>
        <time>2021-04-18T10:25:26.711Z</time>
      </trkpt>
      <trkpt lat="43.79579" lon="7.52245">
        <ele>508.4</ele>
        <time>2021-04-18T10:30:03.637Z</time>
      </trkpt>
      <trkpt lat="43.79117" lon="7.5155">
        <ele>191.2</ele>
        <time>2021-04-18T10:31:56.732Z</time>
      </trkpt>
      <trkpt lat="43.78547" lon="7.5185">
        <ele>19.4</ele>
        <time>2021-04-18T10:33:37.846Z</time>
      </trkpt>
    </trkseg>
  </trk>
</gpx>